Dorothy, New Jersey
Current Conditions -  °F | °C
As of 5:32 AM on Tuesday 27 Jan 2015 (Local Time) from KMIV Reporting Station
Light Snow Light Snow  
Wind Chill: 14°   Ceiling: 2300
Heat Index: 26°   Visibility: 4mi
Dew Point: 20°   Wind: 15mph
Humidity: 78%   Direction: 350°N
Pressure: 29.67"   Gusts: 29mph
Location:  39.4°N, 74.82°W
Report Text: KMIV 271032Z AUTO 35013G25KT 4SM -SN BKN023 OVC110 M03/M07 A2967 RMK AO2 PK WND 36026/1008 SNB23 P0000 T10331067
Loading
Personal Weather Stations






























Interactive Weather Map New forecast layout! Learn more

10-Day Weather Forecast

Advertisements
Track Severe Weather on mobile